Time;durP1;ratioP1;P1;durP2;ratioP2;P2;SDS_P1;SDS_P2;PMS_P1;PMS_P2;Temp;Humidity;BMP_temperature;BMP_pressure;BME280_temperature;BME280_humidity;BME280_pressure;Samples;Min_cycle;Max_cycle;Signal;HPM_P1;HPM_P2
2024/01/12 00:00:44;;;;;;;30.35;7.05;;;;;;;;;;5072067;28;20459;-67
2024/01/12 00:03:09;;;;;;;30.25;6.43;;;;;;;;;;5072071;28;20027;-67
2024/01/12 00:05:35;;;;;;;19.27;6.68;;;;;;;;;;5072107;28;20035;-67
2024/01/12 00:08:01;;;;;;;27.50;6.32;;;;;;;;;;5071792;28;20505;-68
2024/01/12 00:10:26;;;;;;;111.57;25.35;;;;;;;;;;5087571;28;20112;-67
2024/01/12 00:12:52;;;;;;;25.10;8.50;;;;;;;;;;5072116;28;20048;-68
2024/01/12 00:15:17;;;;;;;55.83;26.95;;;;;;;;;;5071875;28;20028;-67
2024/01/12 00:17:43;;;;;;;38.92;20.77;;;;;;;;;;5072023;28;20105;-67
2024/01/12 00:20:09;;;;;;;28.92;10.55;;;;;;;;;;5071828;28;20021;-67
2024/01/12 00:22:34;;;;;;;15.18;5.28;;;;;;;;;;5071575;28;20032;-67
2024/01/12 00:24:59;;;;;;;16.48;4.57;;;;;;;;;;5071863;28;20023;-67
2024/01/12 00:27:25;;;;;;;10.35;4.40;;;;;;;;;;5071807;28;20024;-67
2024/01/12 00:29:51;;;;;;;12.18;4.07;;;;;;;;;;5071792;28;20089;-67
2024/01/12 00:32:16;;;;;;;11.63;5.05;;;;;;;;;;5073329;28;20059;-67
2024/01/12 00:34:41;;;;;;;10.38;5.00;;;;;;;;;;5075193;28;20138;-67
2024/01/12 00:37:07;;;;;;;34.38;6.78;;;;;;;;;;5074949;28;20064;-67
2024/01/12 00:39:33;;;;;;;30.15;7.90;;;;;;;;;;5075201;28;20113;-67
2024/01/12 00:41:58;;;;;;;23.65;7.45;;;;;;;;;;5075192;28;20055;-67
2024/01/12 00:44:24;;;;;;;17.67;6.30;;;;;;;;;;5074918;28;20031;-67
2024/01/12 00:46:51;;;;;;;24.50;7.68;;;;;;;;;;5075019;28;20234;-67
2024/01/12 00:49:20;;;;;;;12.23;5.72;;;;;;;;;;5074973;28;20024;-67
2024/01/12 00:51:46;;;;;;;20.58;5.93;;;;;;;;;;5074668;28;20024;-68
2024/01/12 00:54:11;;;;;;;14.32;5.78;;;;;;;;;;5074911;28;20024;-67
2024/01/12 00:56:37;;;;;;;24.77;7.30;;;;;;;;;;5074657;28;20396;-68
2024/01/12 00:59:03;;;;;;;20.35;6.72;;;;;;;;;;5074853;28;20021;-67
2024/01/12 01:01:29;;;;;;;20.33;6.82;;;;;;;;;;5074688;28;20029;-67
2024/01/12 01:03:54;;;;;;;16.15;6.72;;;;;;;;;;5074662;28;20020;-67
2024/01/12 01:06:20;;;;;;;29.73;7.05;;;;;;;;;;5074581;28;20053;-67
2024/01/12 01:08:47;;;;;;;37.25;6.57;;;;;;;;;;5074480;28;20397;-67
2024/01/12 01:11:13;;;;;;;28.45;6.82;;;;;;;;;;5074581;28;20032;-67
2024/01/12 01:13:38;;;;;;;29.08;6.63;;;;;;;;;;5074460;28;20128;-67
2024/01/12 01:16:04;;;;;;;29.90;6.65;;;;;;;;;;5074389;28;20116;-67
2024/01/12 01:18:30;;;;;;;45.22;7.57;;;;;;;;;;5074361;28;20119;-68
2024/01/12 01:20:59;;;;;;;24.95;9.13;;;;;;;;;;5074196;28;20030;-67
2024/01/12 01:23:24;;;;;;;35.30;11.18;;;;;;;;;;5074103;28;20360;-67
2024/01/12 01:25:50;;;;;;;37.85;6.90;;;;;;;;;;5074216;28;20048;-67
2024/01/12 01:28:16;;;;;;;39.22;13.38;;;;;;;;;;5074429;28;20494;-67
2024/01/12 01:30:41;;;;;;;97.13;12.52;;;;;;;;;;5074109;28;20024;-67
2024/01/12 01:33:06;;;;;;;44.80;9.90;;;;;;;;;;5074179;28;20029;-67
2024/01/12 01:35:32;;;;;;;24.55;6.93;;;;;;;;;;5073776;28;20075;-67
2024/01/12 01:37:58;;;;;;;85.70;12.85;;;;;;;;;;5074037;28;20100;-67
2024/01/12 01:40:23;;;;;;;35.45;7.55;;;;;;;;;;5074002;28;20443;-67
2024/01/12 01:42:49;;;;;;;37.58;17.60;;;;;;;;;;5073816;28;20086;-67
2024/01/12 01:45:15;;;;;;;38.33;15.80;;;;;;;;;;5073309;28;20024;-67
2024/01/12 01:47:41;;;;;;;45.75;12.52;;;;;;;;;;5073960;28;20048;-67
2024/01/12 01:50:07;;;;;;;33.30;8.75;;;;;;;;;;5073430;28;20107;-67
2024/01/12 01:52:33;;;;;;;26.50;8.32;;;;;;;;;;5073448;28;20049;-67
2024/01/12 01:54:59;;;;;;;18.73;6.45;;;;;;;;;;5073733;28;20024;-67
2024/01/12 01:57:27;;;;;;;12.70;5.68;;;;;;;;;;5073437;28;20065;-67
2024/01/12 01:59:53;;;;;;;14.43;5.57;;;;;;;;;;5073544;28;20032;-67
2024/01/12 02:02:19;;;;;;;10.02;5.55;;;;;;;;;;5073574;28;20173;-67
2024/01/12 02:04:44;;;;;;;11.98;4.88;;;;;;;;;;5073326;28;20507;-67
2024/01/12 02:07:10;;;;;;;8.13;4.63;;;;;;;;;;5073397;28;20038;-67
2024/01/12 02:09:37;;;;;;;13.32;5.97;;;;;;;;;;5073297;28;20091;-67
2024/01/12 02:12:04;;;;;;;13.38;5.75;;;;;;;;;;5073288;28;20037;-67
2024/01/12 02:14:30;;;;;;;12.23;5.28;;;;;;;;;;5073270;28;20029;-67
2024/01/12 02:16:55;;;;;;;10.23;5.30;;;;;;;;;;5073314;28;20379;-67
2024/01/12 02:19:21;;;;;;;11.23;4.68;;;;;;;;;;5073058;28;20032;-67
2024/01/12 02:21:46;;;;;;;11.75;5.00;;;;;;;;;;5073268;28;20452;-67
2024/01/12 02:24:12;;;;;;;8.77;4.72;;;;;;;;;;5073061;28;20021;-67
2024/01/12 02:26:37;;;;;;;13.45;5.38;;;;;;;;;;5073003;28;20412;-67
2024/01/12 02:29:03;;;;;;;15.95;8.27;;;;;;;;;;5073130;28;20048;-67
2024/01/12 02:31:29;;;;;;;14.02;7.45;;;;;;;;;;5072990;28;20138;-67
2024/01/12 02:33:55;;;;;;;11.45;6.13;;;;;;;;;;5072578;28;20028;-68
2024/01/12 02:36:21;;;;;;;11.68;5.20;;;;;;;;;;5072827;28;20085;-67
2024/01/12 02:38:49;;;;;;;13.18;5.88;;;;;;;;;;5072798;28;20090;-67
2024/01/12 02:41:15;;;;;;;27.90;10.85;;;;;;;;;;5072811;28;20081;-67
2024/01/12 02:43:40;;;;;;;14.48;6.78;;;;;;;;;;5072656;28;20029;-67
2024/01/12 02:46:06;;;;;;;10.77;6.10;;;;;;;;;;5072520;28;20445;-67
2024/01/12 02:48:31;;;;;;;10.38;6.07;;;;;;;;;;5072519;28;20075;-67
2024/01/12 02:50:57;;;;;;;9.93;5.50;;;;;;;;;;5072660;28;20356;-67
2024/01/12 02:53:22;;;;;;;13.73;5.95;;;;;;;;;;5072465;28;20044;-68
2024/01/12 02:55:47;;;;;;;8.80;3.88;;;;;;;;;;5072484;28;20246;-67
2024/01/12 02:58:13;;;;;;;8.18;3.67;;;;;;;;;;5072531;28;20025;-67
2024/01/12 03:00:39;;;;;;;7.78;4.18;;;;;;;;;;5072501;28;20103;-67
2024/01/12 03:03:04;;;;;;;7.50;4.15;;;;;;;;;;5072368;28;20024;-67
2024/01/12 03:05:29;;;;;;;9.00;4.55;;;;;;;;;;5072562;28;20517;-67
2024/01/12 03:07:55;;;;;;;11.23;5.22;;;;;;;;;;5072443;28;20123;-68
2024/01/12 03:10:20;;;;;;;8.70;4.40;;;;;;;;;;5072468;28;20021;-67
2024/01/12 03:12:46;;;;;;;9.40;4.97;;;;;;;;;;5072323;28;20352;-67
2024/01/12 03:15:11;;;;;;;8.20;4.22;;;;;;;;;;5072181;28;20076;-68
2024/01/12 03:17:36;;;;;;;8.63;4.07;;;;;;;;;;5072066;28;20438;-67
2024/01/12 03:20:04;;;;;;;9.57;4.75;;;;;;;;;;5072147;28;20025;-68
2024/01/12 03:22:30;;;;;;;9.05;4.95;;;;;;;;;;5072189;28;20103;-67
2024/01/12 03:24:55;;;;;;;12.32;5.07;;;;;;;;;;5072250;28;20440;-68
2024/01/12 03:27:21;;;;;;;10.55;5.50;;;;;;;;;;5072103;28;20514;-67
2024/01/12 03:29:46;;;;;;;9.25;4.63;;;;;;;;;;5072181;28;20025;-67
2024/01/12 03:32:11;;;;;;;8.57;4.38;;;;;;;;;;5071979;28;20040;-67
2024/01/12 03:34:37;;;;;;;9.52;4.90;;;;;;;;;;5072144;28;20495;-67
2024/01/12 03:37:02;;;;;;;8.65;4.80;;;;;;;;;;5072085;28;20036;-67
2024/01/12 03:39:28;;;;;;;10.73;5.05;;;;;;;;;;5072276;28;20027;-68
2024/01/12 03:41:53;;;;;;;12.35;4.68;;;;;;;;;;5072151;28;20025;-68
2024/01/12 03:44:18;;;;;;;9.45;4.65;;;;;;;;;;5087239;28;20035;-67
2024/01/12 03:46:44;;;;;;;11.70;5.55;;;;;;;;;;5071937;28;20380;-67
2024/01/12 03:49:09;;;;;;;11.35;5.63;;;;;;;;;;5072015;28;20063;-67
2024/01/12 03:51:35;;;;;;;11.65;5.22;;;;;;;;;;5072027;28;20021;-67
2024/01/12 03:54:00;;;;;;;9.27;4.72;;;;;;;;;;5071660;28;20056;-67
2024/01/12 03:56:26;;;;;;;9.57;5.53;;;;;;;;;;5071862;28;20036;-68
2024/01/12 03:58:51;;;;;;;17.63;6.75;;;;;;;;;;5071605;28;20550;-68
2024/01/12 04:01:17;;;;;;;17.05;6.53;;;;;;;;;;5071872;28;20028;-68
2024/01/12 04:03:42;;;;;;;14.00;4.97;;;;;;;;;;5071900;28;20383;-67
2024/01/12 04:06:09;;;;;;;13.73;5.63;;;;;;;;;;5071818;28;20029;-67
2024/01/12 04:08:34;;;;;;;11.90;4.40;;;;;;;;;;5075506;28;20029;-68
2024/01/12 04:11:00;;;;;;;14.95;4.50;;;;;;;;;;5075707;28;20089;-67
2024/01/12 04:13:25;;;;;;;15.13;5.97;;;;;;;;;;5075269;28;20027;-67
2024/01/12 04:15:51;;;;;;;17.25;6.38;;;;;;;;;;5075526;28;20074;-67
2024/01/12 04:18:16;;;;;;;16.92;6.60;;;;;;;;;;5075443;28;20037;-68
2024/01/12 04:20:42;;;;;;;19.08;8.55;;;;;;;;;;5075323;28;20021;-68
2024/01/12 04:23:07;;;;;;;17.52;6.97;;;;;;;;;;5075392;28;20027;-67
2024/01/12 04:25:32;;;;;;;15.57;6.53;;;;;;;;;;5075351;28;20039;-67
2024/01/12 04:27:58;;;;;;;13.02;5.30;;;;;;;;;;5075150;28;20438;-67
2024/01/12 04:30:23;;;;;;;15.65;8.07;;;;;;;;;;5075263;28;20368;-68
2024/01/12 04:32:50;;;;;;;14.27;6.88;;;;;;;;;;5075200;28;20036;-68
2024/01/12 04:35:15;;;;;;;15.90;7.13;;;;;;;;;;5075119;28;20028;-68
2024/01/12 04:37:41;;;;;;;13.90;6.40;;;;;;;;;;5075157;28;20349;-68
2024/01/12 04:40:07;;;;;;;17.00;7.60;;;;;;;;;;5075036;28;20549;-68
2024/01/12 04:42:32;;;;;;;14.20;6.45;;;;;;;;;;5074790;28;20067;-68
2024/01/12 04:44:58;;;;;;;17.00;6.43;;;;;;;;;;5074905;28;20049;-67
2024/01/12 04:47:23;;;;;;;15.13;6.15;;;;;;;;;;5074991;28;20028;-68
2024/01/12 04:49:48;;;;;;;17.45;8.70;;;;;;;;;;5074907;28;20020;-67
2024/01/12 04:52:14;;;;;;;11.18;5.35;;;;;;;;;;5074767;28;20067;-68
2024/01/12 04:54:39;;;;;;;10.63;5.35;;;;;;;;;;5074919;28;20016;-67
2024/01/12 04:57:04;;;;;;;10.57;4.85;;;;;;;;;;5074430;28;20498;-68
2024/01/12 04:59:30;;;;;;;9.00;4.30;;;;;;;;;;5074514;28;20028;-67
2024/01/12 05:01:55;;;;;;;10.30;4.80;;;;;;;;;;5074763;28;20420;-68
2024/01/12 05:04:21;;;;;;;11.02;4.57;;;;;;;;;;5090183;28;20028;-67
2024/01/12 05:06:46;;;;;;;10.07;4.22;;;;;;;;;;5074577;28;20047;-68
2024/01/12 05:09:12;;;;;;;16.10;4.80;;;;;;;;;;5074298;28;20455;-68
2024/01/12 05:11:37;;;;;;;8.38;4.50;;;;;;;;;;5074355;28;20024;-67
2024/01/12 05:14:03;;;;;;;15.27;5.45;;;;;;;;;;5074292;28;20024;-68
2024/01/12 05:16:29;;;;;;;15.02;5.70;;;;;;;;;;5074286;28;20517;-68
2024/01/12 05:18:54;;;;;;;8.68;4.15;;;;;;;;;;5073224;28;20024;-67
2024/01/12 05:21:19;;;;;;;19.92;5.60;;;;;;;;;;5074347;28;20104;-67
2024/01/12 05:23:45;;;;;;;9.15;4.13;;;;;;;;;;5074365;28;20020;-68
2024/01/12 05:26:14;;;;;;;18.88;4.63;;;;;;;;;;5073918;28;20028;-67
2024/01/12 05:28:39;;;;;;;10.10;4.28;;;;;;;;;;5074144;28;20031;-67
2024/01/12 05:31:05;;;;;;;6.72;3.40;;;;;;;;;;5074254;28;20016;-67
2024/01/12 05:33:30;;;;;;;19.67;4.32;;;;;;;;;;5074008;28;20028;-67
2024/01/12 05:35:56;;;;;;;14.38;3.72;;;;;;;;;;5073864;28;20025;-68
2024/01/12 05:38:21;;;;;;;11.57;4.32;;;;;;;;;;5074100;28;20111;-68
2024/01/12 05:40:47;;;;;;;17.70;4.05;;;;;;;;;;5073614;28;20150;-68
2024/01/12 05:43:12;;;;;;;22.98;5.93;;;;;;;;;;5074024;28;20394;-67
2024/01/12 05:45:37;;;;;;;10.63;2.88;;;;;;;;;;5073684;28;20039;-68
2024/01/12 05:48:03;;;;;;;6.75;3.33;;;;;;;;;;5073710;28;20506;-68
2024/01/12 05:50:29;;;;;;;4.78;2.60;;;;;;;;;;5073731;28;20034;-67
2024/01/12 05:52:54;;;;;;;5.88;2.60;;;;;;;;;;5073539;28;20049;-68
2024/01/12 05:55:20;;;;;;;5.47;2.17;;;;;;;;;;5073387;28;20042;-68
2024/01/12 05:57:45;;;;;;;9.48;2.60;;;;;;;;;;5073634;28;20028;-68
2024/01/12 06:00:11;;;;;;;11.25;2.80;;;;;;;;;;5073298;28;20103;-67
2024/01/12 06:02:37;;;;;;;45.45;3.92;;;;;;;;;;5073449;28;20024;-68
2024/01/12 06:05:03;;;;;;;32.22;3.85;;;;;;;;;;5061553;28;20033;-67
2024/01/12 06:07:28;;;;;;;35.53;4.05;;;;;;;;;;5053475;28;20168;-68
2024/01/12 06:09:53;;;;;;;18.52;4.18;;;;;;;;;;5053182;28;20108;-67
2024/01/12 06:12:19;;;;;;;16.63;4.50;;;;;;;;;;5053415;28;20059;-68
2024/01/12 06:14:44;;;;;;;15.68;4.25;;;;;;;;;;5053140;28;20021;-67
2024/01/12 06:17:10;;;;;;;8.45;3.03;;;;;;;;;;5053198;28;20041;-68
2024/01/12 06:19:35;;;;;;;15.98;3.47;;;;;;;;;;5053208;28;20037;-68
2024/01/12 06:22:00;;;;;;;21.30;4.55;;;;;;;;;;5053061;28;20388;-68
2024/01/12 06:24:26;;;;;;;17.02;4.45;;;;;;;;;;5051589;28;20082;-68
2024/01/12 06:26:51;;;;;;;28.52;5.25;;;;;;;;;;5053082;28;20059;-68
2024/01/12 06:29:17;;;;;;;18.83;4.28;;;;;;;;;;5052756;28;20029;-68
2024/01/12 06:31:42;;;;;;;12.13;3.00;;;;;;;;;;5052952;28;20021;-68
2024/01/12 06:34:07;;;;;;;10.80;3.65;;;;;;;;;;5052772;28;20400;-68
2024/01/12 06:36:33;;;;;;;8.98;3.85;;;;;;;;;;5052903;28;20044;-68
2024/01/12 06:38:58;;;;;;;12.68;4.35;;;;;;;;;;5052302;28;20032;-68
2024/01/12 06:41:24;;;;;;;14.45;4.13;;;;;;;;;;5052919;28;20037;-67
2024/01/12 06:43:49;;;;;;;9.63;5.43;;;;;;;;;;5052764;28;20397;-68
2024/01/12 06:46:15;;;;;;;12.00;3.80;;;;;;;;;;5068928;28;20442;-68
2024/01/12 06:48:40;;;;;;;12.80;4.10;;;;;;;;;;5072753;28;20039;-67
2024/01/12 06:51:06;;;;;;;27.17;4.82;;;;;;;;;;5072668;28;20530;-68
2024/01/12 06:53:31;;;;;;;13.50;3.75;;;;;;;;;;5071870;28;20052;-68
2024/01/12 06:55:56;;;;;;;22.70;4.13;;;;;;;;;;5072393;28;20017;-68
2024/01/12 06:58:22;;;;;;;10.98;3.72;;;;;;;;;;5072691;28;20028;-68
2024/01/12 07:00:48;;;;;;;9.52;3.05;;;;;;;;;;5072527;28;20055;-68
2024/01/12 07:03:13;;;;;;;8.48;3.50;;;;;;;;;;5072164;28;20407;-68
2024/01/12 07:05:38;;;;;;;10.80;3.20;;;;;;;;;;5072473;28;20428;-68
2024/01/12 07:08:04;;;;;;;12.93;3.80;;;;;;;;;;5072087;28;20032;-68
2024/01/12 07:10:29;;;;;;;13.95;3.72;;;;;;;;;;5072374;28;20028;-68
2024/01/12 07:12:55;;;;;;;12.38;3.65;;;;;;;;;;5072397;28;20043;-68
2024/01/12 07:15:20;;;;;;;17.52;4.15;;;;;;;;;;5072280;28;20166;-68
2024/01/12 07:17:49;;;;;;;14.20;4.32;;;;;;;;;;5072410;28;20421;-68
2024/01/12 07:20:15;;;;;;;12.80;3.33;;;;;;;;;;5072296;28;20035;-68
2024/01/12 07:22:40;;;;;;;23.33;3.20;;;;;;;;;;5069359;28;20123;-68
2024/01/12 07:25:06;;;;;;;15.02;3.90;;;;;;;;;;5071953;28;20066;-68
2024/01/12 07:27:31;;;;;;;5.68;2.90;;;;;;;;;;5071670;28;20032;-68
2024/01/12 07:29:57;;;;;;;14.23;3.00;;;;;;;;;;5072021;28;20530;-68
2024/01/12 07:32:22;;;;;;;7.78;3.75;;;;;;;;;;5054266;28;20028;-68
2024/01/12 07:34:48;;;;;;;8.77;3.35;;;;;;;;;;5072168;28;20029;-67
2024/01/12 07:37:13;;;;;;;6.97;3.67;;;;;;;;;;5071828;28;20115;-68
2024/01/12 07:39:39;;;;;;;8.48;4.03;;;;;;;;;;5071811;28;20060;-67
2024/01/12 07:42:04;;;;;;;10.60;3.65;;;;;;;;;;5073554;28;20458;-68
2024/01/12 07:44:30;;;;;;;12.68;3.33;;;;;;;;;;5075869;28;20523;-68
2024/01/12 07:46:55;;;;;;;9.23;2.85;;;;;;;;;;5076149;28;20435;-68
2024/01/12 07:49:21;;;;;;;6.90;2.10;;;;;;;;;;5075986;28;20020;-68
2024/01/12 07:51:46;;;;;;;14.27;3.55;;;;;;;;;;5074887;28;20472;-68
2024/01/12 07:54:12;;;;;;;5.63;2.83;;;;;;;;;;5075324;28;20021;-68
2024/01/12 07:56:37;;;;;;;8.77;3.30;;;;;;;;;;5074935;28;20025;-68
2024/01/12 07:59:02;;;;;;;14.02;3.33;;;;;;;;;;5075303;28;20485;-67
2024/01/12 08:01:28;;;;;;;8.73;3.40;;;;;;;;;;5076721;28;20025;-67
2024/01/12 08:03:53;;;;;;;5.75;2.88;;;;;;;;;;5075290;28;20044;-68
2024/01/12 08:06:20;;;;;;;10.27;3.38;;;;;;;;;;5075351;28;20024;-68
2024/01/12 08:08:46;;;;;;;9.20;3.40;;;;;;;;;;5075416;28;20028;-68
2024/01/12 08:11:11;;;;;;;17.80;3.67;;;;;;;;;;5075240;28;20044;-67
2024/01/12 08:13:37;;;;;;;10.52;4.25;;;;;;;;;;5076812;28;20025;-68
2024/01/12 08:16:02;;;;;;;7.53;3.63;;;;;;;;;;5075251;28;20487;-68
2024/01/12 08:18:28;;;;;;;10.55;3.55;;;;;;;;;;5075217;28;20048;-67
2024/01/12 08:20:54;;;;;;;11.07;2.92;;;;;;;;;;5057263;28;20387;-68
2024/01/12 08:23:19;;;;;;;7.93;3.85;;;;;;;;;;5075087;28;20111;-68
2024/01/12 08:25:45;;;;;;;8.20;3.55;;;;;;;;;;5074913;28;20495;-68
2024/01/12 08:28:10;;;;;;;12.68;4.05;;;;;;;;;;5075174;28;20056;-68
2024/01/12 08:30:36;;;;;;;13.25;3.90;;;;;;;;;;5074731;28;20103;-67
2024/01/12 08:33:01;;;;;;;12.32;3.50;;;;;;;;;;5074906;28;20059;-68
2024/01/12 08:35:26;;;;;;;6.32;3.33;;;;;;;;;;5074620;28;20021;-68
2024/01/12 08:37:52;;;;;;;15.10;3.58;;;;;;;;;;5074771;28;20086;-68
2024/01/12 08:40:18;;;;;;;10.93;3.67;;;;;;;;;;5074799;28;20047;-67
2024/01/12 08:42:43;;;;;;;17.27;3.13;;;;;;;;;;5074694;28;20384;-68
2024/01/12 08:45:09;;;;;;;14.05;2.95;;;;;;;;;;5074318;28;20028;-68
2024/01/12 08:47:34;;;;;;;13.55;3.42;;;;;;;;;;5074456;28;20097;-66
2024/01/12 08:50:00;;;;;;;17.08;3.53;;;;;;;;;;5074380;28;20037;-66
2024/01/12 08:52:26;;;;;;;12.93;3.63;;;;;;;;;;5074275;28;20041;-66
2024/01/12 08:54:51;;;;;;;9.27;3.15;;;;;;;;;;5056557;28;20032;-68
2024/01/12 08:57:17;;;;;;;14.68;3.03;;;;;;;;;;5074204;28;20077;-68
2024/01/12 08:59:42;;;;;;;8.20;2.63;;;;;;;;;;5074484;28;20115;-68
2024/01/12 09:02:07;;;;;;;8.70;3.38;;;;;;;;;;5074490;28;20123;-68
2024/01/12 09:04:34;;;;;;;9.40;2.88;;;;;;;;;;5074022;28;20532;-68
2024/01/12 09:06:59;;;;;;;10.60;3.60;;;;;;;;;;5074203;28;20070;-68
2024/01/12 09:09:25;;;;;;;9.90;4.53;;;;;;;;;;5074377;28;20439;-68
2024/01/12 09:11:51;;;;;;;12.18;4.72;;;;;;;;;;5074420;28;20104;-68
2024/01/12 09:14:17;;;;;;;9.77;4.35;;;;;;;;;;5056210;28;20020;-68
2024/01/12 09:16:42;;;;;;;15.73;4.05;;;;;;;;;;5074091;28;20105;-66
2024/01/12 09:19:08;;;;;;;13.25;4.30;;;;;;;;;;5073852;28;20112;-66
2024/01/12 09:21:33;;;;;;;16.98;4.78;;;;;;;;;;5074107;28;20021;-68
2024/01/12 09:23:59;;;;;;;15.60;5.13;;;;;;;;;;5073963;28;20035;-67
2024/01/12 09:26:24;;;;;;;13.38;4.90;;;;;;;;;;5073813;28;20135;-66
2024/01/12 09:28:50;;;;;;;12.32;5.13;;;;;;;;;;5073959;28;20375;-66
2024/01/12 09:31:15;;;;;;;9.75;4.82;;;;;;;;;;5073887;28;20024;-66
2024/01/12 09:33:41;;;;;;;15.88;5.47;;;;;;;;;;5073635;28;20028;-66
2024/01/12 09:36:07;;;;;;;12.73;4.88;;;;;;;;;;5073740;28;20055;-66
2024/01/12 09:38:33;;;;;;;10.13;4.40;;;;;;;;;;5073903;28;20079;-66
2024/01/12 09:41:00;;;;;;;11.13;3.67;;;;;;;;;;5073746;28;20036;-66
2024/01/12 09:43:28;;;;;;;8.93;4.50;;;;;;;;;;5073226;28;20026;-66
2024/01/12 09:45:59;;;;;;;9.13;4.57;;;;;;;;;;5073226;28;20059;-66
2024/01/12 09:48:26;;;;;;;10.65;4.60;;;;;;;;;;5073297;28;20051;-66
2024/01/12 09:50:54;;;;;;;11.18;4.30;;;;;;;;;;5073536;28;20028;-66
2024/01/12 09:53:19;;;;;;;8.15;4.00;;;;;;;;;;5073178;28;20055;-66
2024/01/12 09:55:45;;;;;;;15.07;5.93;;;;;;;;;;5073376;28;20024;-67
2024/01/12 09:58:10;;;;;;;10.05;5.05;;;;;;;;;;5054996;28;20029;-66
2024/01/12 10:00:37;;;;;;;6.63;4.18;;;;;;;;;;5073217;28;20024;-67
2024/01/12 10:03:05;;;;;;;8.00;4.00;;;;;;;;;;5072857;28;20112;-66
2024/01/12 10:05:31;;;;;;;7.18;3.72;;;;;;;;;;5072415;28;20115;-67
2024/01/12 10:07:56;;;;;;;8.40;4.47;;;;;;;;;;5073075;28;20020;-67
2024/01/12 10:10:22;;;;;;;8.05;4.40;;;;;;;;;;5073193;28;20028;-66
2024/01/12 10:12:48;;;;;;;9.05;3.17;;;;;;;;;;5073056;28;20035;-67
2024/01/12 10:15:14;;;;;;;6.38;3.45;;;;;;;;;;5072875;28;20029;-67
2024/01/12 10:17:39;;;;;;;10.75;4.10;;;;;;;;;;5072704;28;20029;-66
2024/01/12 10:20:06;;;;;;;8.13;3.95;;;;;;;;;;5073182;28;20021;-66
2024/01/12 10:22:31;;;;;;;9.02;4.45;;;;;;;;;;5055020;28;20025;-66
2024/01/12 10:25:01;;;;;;;8.30;3.85;;;;;;;;;;5072943;28;20032;-67
2024/01/12 10:27:27;;;;;;;5.50;3.27;;;;;;;;;;5072430;28;20032;-66
2024/01/12 10:29:53;;;;;;;8.00;4.03;;;;;;;;;;5072436;28;20687;-66
2024/01/12 10:32:19;;;;;;;5.00;3.08;;;;;;;;;;5072414;28;20025;-66
2024/01/12 10:34:49;;;;;;;6.97;3.60;;;;;;;;;;5072536;28;20379;-66
2024/01/12 10:37:16;;;;;;;7.28;3.60;;;;;;;;;;5072454;28;20039;-67
2024/01/12 10:39:44;;;;;;;7.25;3.83;;;;;;;;;;5072441;28;20383;-66
2024/01/12 10:42:12;;;;;;;11.43;4.75;;;;;;;;;;5072622;28;20020;-66
2024/01/12 10:44:39;;;;;;;10.15;4.55;;;;;;;;;;5072346;28;20036;-68
2024/01/12 10:47:07;;;;;;;9.93;4.55;;;;;;;;;;5071845;28;20031;-68
2024/01/12 10:49:57;;;;;;;10.45;4.53;;;;;;;;;;5072401;28;20383;-68
2024/01/12 10:52:47;;;;;;;12.57;5.07;;;;;;;;;;5087803;28;20352;-66
2024/01/12 10:55:16;;;;;;;8.02;4.47;;;;;;;;;;5054373;28;20028;-66
2024/01/12 10:57:45;;;;;;;12.82;5.40;;;;;;;;;;5072654;28;20094;-67
2024/01/12 11:00:11;;;;;;;13.32;5.88;;;;;;;;;;5071920;28;20086;-67
2024/01/12 11:02:38;;;;;;;12.32;5.82;;;;;;;;;;5072130;28;20025;-66
2024/01/12 11:05:07;;;;;;;14.48;6.68;;;;;;;;;;5073970;28;20111;-66
2024/01/12 11:07:34;;;;;;;12.38;5.30;;;;;;;;;;5071890;28;20428;-67
2024/01/12 11:10:00;;;;;;;9.85;4.88;;;;;;;;;;5072191;28;20020;-66
2024/01/12 11:12:32;;;;;;;14.02;5.05;;;;;;;;;;5072114;28;20035;-68
2024/01/12 11:14:58;;;;;;;9.98;5.40;;;;;;;;;;5054053;28;20039;-65
2024/01/12 11:17:31;;;;;;;15.20;5.78;;;;;;;;;;5070975;28;20487;-68
2024/01/12 11:20:10;;;;;;;18.85;7.22;;;;;;;;;;5072183;28;20056;-65
2024/01/12 11:22:37;;;;;;;14.20;7.53;;;;;;;;;;5072037;28;20077;-66
2024/01/12 11:25:07;;;;;;;17.00;7.00;;;;;;;;;;5071814;28;20213;-66
2024/01/12 11:27:37;;;;;;;19.23;8.85;;;;;;;;;;5071409;28;20073;-66
2024/01/12 11:30:05;;;;;;;11.15;4.63;;;;;;;;;;5071923;28;20066;-66
2024/01/12 11:32:30;;;;;;;15.52;7.30;;;;;;;;;;5071962;28;20517;-66
2024/01/12 11:35:15;;;;;;;18.65;7.20;;;;;;;;;;5054067;28;20083;-66
2024/01/12 11:37:45;;;;;;;19.67;7.00;;;;;;;;;;5053801;28;20033;-67
2024/01/12 11:40:15;;;;;;;21.23;8.18;;;;;;;;;;5071921;28;20028;-67
2024/01/12 11:42:42;;;;;;;;;;;;;;;;;;5072117;28;20406;-66
2024/01/12 11:45:09;;;;;;;18.05;7.10;;;;;;;;;;5071232;28;19923;-66
2024/01/12 11:47:37;;;;;;;16.75;7.53;;;;;;;;;;5071608;28;20025;-66
2024/01/12 11:50:04;;;;;;;20.63;7.88;;;;;;;;;;5071753;28;20109;-66
2024/01/12 11:52:30;;;;;;;19.23;7.75;;;;;;;;;;5071673;28;20079;-67
2024/01/12 11:54:56;;;;;;;22.65;8.10;;;;;;;;;;5072028;28;20077;-67
2024/01/12 11:57:21;;;;;;;15.32;5.70;;;;;;;;;;5071340;28;20547;-67
2024/01/12 11:59:47;;;;;;;20.15;8.00;;;;;;;;;;5071715;28;20017;-67
2024/01/12 12:02:12;;;;;;;21.55;7.22;;;;;;;;;;5071746;28;20040;-67
2024/01/12 12:04:37;;;;;;;26.90;12.25;;;;;;;;;;5073497;28;20365;-67
2024/01/12 12:07:03;;;;;;;24.60;10.18;;;;;;;;;;5071866;28;20506;-67
2024/01/12 12:09:28;;;;;;;16.92;7.25;;;;;;;;;;5053811;28;20029;-67
2024/01/12 12:11:54;;;;;;;13.02;6.28;;;;;;;;;;5071529;28;20125;-67
2024/01/12 12:14:20;;;;;;;10.32;5.70;;;;;;;;;;5071710;28;20467;-67
2024/01/12 12:16:47;;;;;;;19.02;9.48;;;;;;;;;;5071618;28;20038;-67
2024/01/12 12:19:13;;;;;;;14.95;7.93;;;;;;;;;;5071446;28;20032;-67
2024/01/12 12:21:40;;;;;;;11.80;6.53;;;;;;;;;;5071419;28;20021;-67
2024/01/12 12:24:05;;;;;;;14.10;5.80;;;;;;;;;;5071590;28;20098;-67
2024/01/12 12:26:31;;;;;;;12.05;6.00;;;;;;;;;;5071328;28;20475;-67
2024/01/12 12:28:58;;;;;;;12.30;6.38;;;;;;;;;;5073889;28;20031;-67
2024/01/12 12:31:27;;;;;;;11.07;5.18;;;;;;;;;;5074938;28;20502;-67
2024/01/12 12:33:52;;;;;;;11.93;6.10;;;;;;;;;;5075091;28;20116;-67
2024/01/12 12:36:18;;;;;;;9.30;4.95;;;;;;;;;;5074997;28;20119;-68
2024/01/12 12:38:44;;;;;;;13.85;5.88;;;;;;;;;;5074968;28;20111;-67
2024/01/12 12:41:10;;;;;;;9.98;4.95;;;;;;;;;;5074746;28;20044;-67
2024/01/12 12:43:37;;;;;;;14.52;6.20;;;;;;;;;;5074840;28;20016;-68
2024/01/12 12:46:04;;;;;;;13.93;6.13;;;;;;;;;;5074825;28;20028;-67
2024/01/12 12:48:29;;;;;;;8.65;4.97;;;;;;;;;;5074567;28;20032;-67
2024/01/12 12:50:55;;;;;;;13.43;5.78;;;;;;;;;;5074768;28;20029;-68
2024/01/12 12:53:21;;;;;;;11.70;5.05;;;;;;;;;;5074148;28;20048;-68
2024/01/12 12:55:47;;;;;;;11.65;5.07;;;;;;;;;;5074325;28;20020;-67
2024/01/12 12:58:13;;;;;;;12.18;5.25;;;;;;;;;;5074486;28;20025;-67
2024/01/12 13:00:39;;;;;;;11.10;5.78;;;;;;;;;;5074503;28;20380;-67
2024/01/12 13:03:04;;;;;;;10.68;5.20;;;;;;;;;;5074487;28;20039;-68
2024/01/12 13:05:36;;;;;;;13.52;5.97;;;;;;;;;;5075733;28;20025;-68
2024/01/12 13:08:02;;;;;;;18.70;8.18;;;;;;;;;;5074296;28;20063;-67
2024/01/12 13:10:27;;;;;;;16.27;7.85;;;;;;;;;;5074245;28;20047;-67
2024/01/12 13:12:53;;;;;;;17.48;8.48;;;;;;;;;;5074278;28;20029;-68
2024/01/12 13:15:18;;;;;;;14.48;5.97;;;;;;;;;;5074104;28;20024;-67
2024/01/12 13:17:44;;;;;;;10.57;4.90;;;;;;;;;;5074133;28;20075;-68
2024/01/12 13:20:10;;;;;;;10.82;5.63;;;;;;;;;;5074117;28;20111;-67
2024/01/12 13:22:35;;;;;;;11.60;5.85;;;;;;;;;;5074111;28;20021;-67
2024/01/12 13:25:01;;;;;;;11.52;5.22;;;;;;;;;;5073565;28;20039;-68
2024/01/12 13:27:27;;;;;;;14.75;6.90;;;;;;;;;;5074153;28;20024;-68
2024/01/12 13:29:52;;;;;;;12.40;6.85;;;;;;;;;;5073993;28;20025;-66
2024/01/12 13:32:17;;;;;;;19.38;8.60;;;;;;;;;;5073924;28;20032;-67
2024/01/12 13:34:43;;;;;;;12.15;7.03;;;;;;;;;;5073947;28;20040;-66
2024/01/12 13:37:08;;;;;;;12.55;6.43;;;;;;;;;;5073494;28;20379;-66
2024/01/12 13:39:34;;;;;;;20.65;8.50;;;;;;;;;;5072422;28;20106;-66
2024/01/12 13:42:02;;;;;;;15.88;7.60;;;;;;;;;;5073647;28;20028;-66
2024/01/12 13:44:28;;;;;;;16.05;8.60;;;;;;;;;;5073417;28;20559;-67
2024/01/12 13:46:54;;;;;;;19.25;8.95;;;;;;;;;;5073494;28;20107;-66
2024/01/12 13:49:20;;;;;;;18.60;8.35;;;;;;;;;;5073559;28;20035;-66
2024/01/12 13:51:45;;;;;;;9.80;5.60;;;;;;;;;;5073514;28;20025;-67
2024/01/12 13:54:13;;;;;;;15.50;7.55;;;;;;;;;;5072926;28;20083;-66
2024/01/12 13:56:39;;;;;;;12.38;6.30;;;;;;;;;;5073237;28;20028;-66
2024/01/12 13:59:04;;;;;;;15.80;6.97;;;;;;;;;;5073056;28;20485;-66
2024/01/12 14:01:32;;;;;;;18.75;9.88;;;;;;;;;;5073103;28;20025;-66
2024/01/12 14:03:58;;;;;;;16.48;6.28;;;;;;;;;;5075014;28;20016;-66
2024/01/12 14:06:25;;;;;;;14.52;6.78;;;;;;;;;;5073261;28;20070;-66
2024/01/12 14:08:51;;;;;;;14.75;7.28;;;;;;;;;;5055258;28;20514;-67
2024/01/12 14:11:17;;;;;;;14.07;7.05;;;;;;;;;;5072734;28;20440;-67
2024/01/12 14:13:43;;;;;;;19.40;7.63;;;;;;;;;;5072847;28;20182;-67
2024/01/12 14:16:09;;;;;;;14.82;6.95;;;;;;;;;;5072849;28;20032;-67
2024/01/12 14:18:34;;;;;;;14.07;7.00;;;;;;;;;;5072961;28;20116;-66
2024/01/12 14:21:00;;;;;;;15.43;6.88;;;;;;;;;;5072825;28;20463;-67
2024/01/12 14:23:25;;;;;;;16.23;7.70;;;;;;;;;;5072473;28;20509;-66
2024/01/12 14:25:51;;;;;;;19.58;7.95;;;;;;;;;;5072729;28;20127;-66